Terminal Aerodrome Forecast
Issued by NWS Cleveland, OH

Home | Current Version | Previous Version | Graphics & Text | Print | Product List | Glossary On
Versions: 1 2 3 4 5 6 7 8 9 10 11 12 13 14 15 16
407
FTUS41 KCLE 192334
TAFYNG
TAF
KYNG 192334Z 2000/2024 29008KT P6SM SCT250
     FM200200 VRB03KT P6SM SKC
      TEMPO 2009/2012 3SM BR
     FM201400 21005KT P6SM FEW250=

USA.gov is the U.S. government's official web portal to all federal, state and local government web resources and services.